Time;durP1;ratioP1;P1;durP2;ratioP2;P2;SDS_P1;SDS_P2;PMS_P1;PMS_P2;Temp;Humidity;BMP_temperature;BMP_pressure;BME280_temperature;BME280_humidity;BME280_pressure;Samples;Min_cycle;Max_cycle;Signal;HPM_P1;HPM_P2
2020/12/11 08:23:44;;;;;;;9.88;5.97;;;;;;;;;;5088933;27;20334;-65
2020/12/11 08:26:10;;;;;;;8.48;5.47;;;;;;;;;;5093844;28;20028;-65
2020/12/11 08:28:35;;;;;;;7.93;4.55;;;;;;;;;;5093008;28;20353;-66
2020/12/11 08:31:11;;;;;;;7.88;5.38;;;;;;;;;;5088269;28;20020;-66
2020/12/11 08:33:36;;;;;;;9.25;5.70;;;;;;;;;;5089557;28;20036;-64
2020/12/11 08:36:01;;;;;;;10.50;6.25;;;;;;;;;;5089793;28;20027;-66
2020/12/11 08:38:27;;;;;;;10.85;6.55;;;;;;;;;;5087786;28;20480;-64
2020/12/11 08:40:52;;;;;;;11.90;7.43;;;;;;;;;;5089428;28;20503;-66
2020/12/11 08:46:09;;;;;;;13.90;7.93;;;;;;;;;;5089072;28;20111;-66
2020/12/11 08:48:54;;;;;;;14.48;8.48;;;;;;;;;;5089613;28;20037;-66
2020/12/11 08:51:19;;;;;;;16.35;8.20;;;;;;;;;;5088314;28;20032;-67
2020/12/11 08:53:47;;;;;;;14.38;8.50;;;;;;;;;;5087663;28;20016;-67
2020/12/11 08:56:13;;;;;;;14.07;8.07;;;;;;;;;;5089127;28;20020;-66
2020/12/11 08:58:38;;;;;;;15.88;9.82;;;;;;;;;;5089007;28;20070;-67
2020/12/11 09:01:05;;;;;;;22.60;9.32;;;;;;;;;;5087092;28;20016;-68
2020/12/11 09:03:30;;;;;;;20.33;10.82;;;;;;;;;;5088868;28;20026;-68
2020/12/11 09:05:55;;;;;;;17.25;10.27;;;;;;;;;;5089074;28;20020;-68
2020/12/11 09:08:21;;;;;;;17.90;10.73;;;;;;;;;;5088667;28;20013;-69
2020/12/11 09:10:46;;;;;;;15.32;9.07;;;;;;;;;;5088454;28;20052;-64
2020/12/11 09:13:11;;;;;;;18.40;10.35;;;;;;;;;;5088733;28;20439;-64
2020/12/11 09:15:37;;;;;;;12.10;8.45;;;;;;;;;;5087524;28;20069;-65
2020/12/11 09:18:02;;;;;;;16.80;9.10;;;;;;;;;;5087491;28;20020;-65
2020/12/11 09:20:28;;;;;;;12.73;8.40;;;;;;;;;;5087172;28;20028;-66
2020/12/11 09:22:55;;;;;;;33.30;10.48;;;;;;;;;;5082150;28;20688;-64
2020/12/11 09:25:20;;;;;;;29.15;8.82;;;;;;;;;;5104263;28;20026;-64
2020/12/11 09:27:46;;;;;;;25.48;7.88;;;;;;;;;;5073099;28;20016;-64
2020/12/11 09:35:06;;;;;;;13.68;6.90;;;;;;;;;;5079262;28;20029;-66
2020/12/11 09:37:31;;;;;;;13.25;8.82;;;;;;;;;;5089135;28;20099;-65
2020/12/11 09:39:56;;;;;;;14.00;9.13;;;;;;;;;;5078845;28;20020;-65
2020/12/11 09:45:02;;;;;;;12.70;9.40;;;;;;;;;;5084240;28;20032;-67
2020/12/11 09:54:58;;;;;;;10.93;7.20;;;;;;;;;;5079792;28;20431;-68
2020/12/11 09:57:23;;;;;;;12.82;8.27;;;;;;;;;;5089284;28;20269;-66
2020/12/11 09:59:52;;;;;;;12.85;7.78;;;;;;;;;;5075857;28;20022;-68
2020/12/11 10:04:52;;;;;;;11.70;7.95;;;;;;;;;;5086207;28;20090;-68
2020/12/11 10:07:17;;;;;;;12.02;7.90;;;;;;;;;;5076138;28;20458;-67
2020/12/11 10:09:43;;;;;;;10.45;7.32;;;;;;;;;;5088899;28;20013;-66
2020/12/11 10:12:09;;;;;;;10.63;6.88;;;;;;;;;;5079744;28;20480;-66
2020/12/11 10:14:38;;;;;;;13.02;8.10;;;;;;;;;;5082130;28;20032;-67
2020/12/11 10:17:03;;;;;;;13.20;8.65;;;;;;;;;;5087012;28;20032;-68
2020/12/11 10:19:29;;;;;;;20.25;11.73;;;;;;;;;;5076877;28;20047;-70
2020/12/11 10:21:55;;;;;;;34.13;17.50;;;;;;;;;;5089106;28;20052;-69
2020/12/11 10:24:21;;;;;;;24.52;12.68;;;;;;;;;;5083500;28;20012;-70
2020/12/11 10:26:46;;;;;;;16.90;8.20;;;;;;;;;;5081613;28;20150;-68
2020/12/11 10:29:15;;;;;;;17.58;9.40;;;;;;;;;;5087017;28;20349;-70
2020/12/11 10:31:43;;;;;;;13.15;8.63;;;;;;;;;;5076656;28;20035;-68
2020/12/11 10:34:09;;;;;;;14.95;8.70;;;;;;;;;;5087548;28;20017;-70
2020/12/11 10:36:34;;;;;;;15.95;9.30;;;;;;;;;;5081401;28;20024;-69
2020/12/11 10:39:00;;;;;;;15.32;10.82;;;;;;;;;;5078345;28;20536;-68
2020/12/11 10:41:27;;;;;;;16.00;11.30;;;;;;;;;;5089766;28;20024;-67
2020/12/11 10:43:53;;;;;;;15.98;10.85;;;;;;;;;;5076421;28;20519;-67
2020/12/11 10:46:19;;;;;;;14.20;9.55;;;;;;;;;;5082815;28;20558;-68
2020/12/11 10:48:44;;;;;;;24.35;13.43;;;;;;;;;;5083580;28;20103;-67
2020/12/11 10:51:13;;;;;;;35.83;16.83;;;;;;;;;;5076235;28;20342;-68
2020/12/11 11:17:12;;;;;;;18.40;10.68;;;;;;;;;;5003762;28;20076;-67
2020/12/11 11:29:46;;;;;;;24.35;10.27;;;;;;;;;;5007478;28;20058;-67
2020/12/11 12:55:14;;;;;;;26.42;15.05;;;;;;;;;;5509492;22;15171154;-68
2020/12/11 12:57:45;;;;;;;33.63;17.27;;;;;;;;;;6112891;23;20085;-68
2020/12/11 13:03:10;;;;;;;34.92;15.95;;;;;;;;;;6132392;23;20320;-68
2020/12/11 13:05:31;;;;;;;17.65;11.32;;;;;;;;;;6130502;23;20068;-68
2020/12/11 13:07:56;;;;;;;21.45;12.73;;;;;;;;;;6132498;23;20002;-69
2020/12/11 13:10:22;;;;;;;27.92;14.85;;;;;;;;;;6132168;23;20081;-70
2020/12/11 13:12:48;;;;;;;31.77;16.50;;;;;;;;;;6131809;23;19998;-68
2020/12/11 13:15:15;;;;;;;27.45;16.17;;;;;;;;;;6131243;23;20005;-70
2020/12/11 13:17:40;;;;;;;20.55;13.15;;;;;;;;;;6130685;23;20056;-70
2020/12/11 13:20:11;;;;;;;24.02;14.55;;;;;;;;;;6130279;23;20001;-70
2020/12/11 13:27:42;;;;;;;33.42;15.55;;;;;;;;;;6130801;23;20006;-65
2020/12/11 13:30:07;;;;;;;28.92;15.60;;;;;;;;;;6130789;23;20343;-66
2020/12/11 13:32:33;;;;;;;31.73;16.95;;;;;;;;;;6130439;23;19997;-66
2020/12/11 13:34:58;;;;;;;26.40;14.88;;;;;;;;;;6131261;23;20049;-68
2020/12/11 13:37:30;;;;;;;24.38;13.60;;;;;;;;;;6131808;23;20005;-66
2020/12/11 13:39:56;;;;;;;23.17;13.90;;;;;;;;;;6131580;23;20510;-64
2020/12/11 13:42:24;;;;;;;40.45;20.05;;;;;;;;;;6105871;23;20088;-64
2020/12/11 13:44:49;;;;;;;40.75;20.08;;;;;;;;;;6131238;23;20006;-66
2020/12/11 13:47:14;;;;;;;33.75;17.27;;;;;;;;;;6126291;23;20084;-64
2020/12/11 13:49:40;;;;;;;28.60;16.83;;;;;;;;;;6123783;23;20002;-66
2020/12/11 13:52:05;;;;;;;35.88;18.92;;;;;;;;;;6122812;23;20057;-64
2020/12/11 13:54:31;;;;;;;32.10;17.05;;;;;;;;;;6125104;23;20084;-66
2020/12/11 13:56:56;;;;;;;30.48;17.63;;;;;;;;;;6124391;23;19998;-66
2020/12/11 13:59:22;;;;;;;32.05;17.13;;;;;;;;;;6125174;23;19998;-64
2020/12/11 14:01:48;;;;;;;33.03;16.98;;;;;;;;;;6125568;23;20323;-62
2020/12/11 14:04:14;;;;;;;26.10;15.48;;;;;;;;;;6125681;23;20328;-62
2020/12/11 14:06:40;;;;;;;33.10;17.27;;;;;;;;;;6123581;23;20006;-63
2020/12/11 14:09:05;;;;;;;37.17;21.20;;;;;;;;;;6124786;23;20006;-62
2020/12/11 14:11:32;;;;;;;35.33;19.35;;;;;;;;;;6124437;23;20030;-64
2020/12/11 14:13:57;;;;;;;32.22;18.48;;;;;;;;;;6099663;23;20009;-71
2020/12/11 14:18:54;;;;;;;30.35;11.20;;;;;;;;;;6124044;23;20084;-69
2020/12/11 14:21:32;;;;;;;54.55;20.30;;;;;;;;;;6124074;23;20368;-65
2020/12/11 14:23:59;;;;;;;27.67;16.55;;;;;;;;;;6125291;23;20072;-72
2020/12/11 14:26:25;;;;;;;32.85;18.08;;;;;;;;;;6125710;23;20371;-67
2020/12/11 14:28:50;;;;;;;43.95;20.67;;;;;;;;;;6123399;23;20009;-66
2020/12/11 14:31:16;;;;;;;31.20;18.77;;;;;;;;;;6125396;23;20002;-67
2020/12/11 14:33:42;;;;;;;30.38;17.45;;;;;;;;;;6125378;23;20439;-69
2020/12/11 14:36:08;;;;;;;43.65;22.33;;;;;;;;;;6124918;23;20009;-68
2020/12/11 14:40:59;;;;;;;35.25;18.85;;;;;;;;;;6123497;23;20009;-68
2020/12/11 14:43:31;;;;;;;38.95;22.02;;;;;;;;;;6123939;23;20448;-68
2020/12/11 14:46:00;;;;;;;38.42;21.38;;;;;;;;;;6125204;23;20006;-68
2020/12/11 14:48:27;;;;;;;42.75;19.73;;;;;;;;;;6123984;23;20001;-70
2020/12/11 14:50:52;;;;;;;34.63;18.27;;;;;;;;;;6125183;23;20009;-69
2020/12/11 14:53:18;;;;;;;34.25;18.63;;;;;;;;;;6124697;23;20002;-69
2020/12/11 14:55:43;;;;;;;39.20;20.23;;;;;;;;;;6099358;23;20049;-70
2020/12/11 14:58:09;;;;;;;36.05;20.08;;;;;;;;;;6125103;23;20355;-71
2020/12/11 15:00:34;;;;;;;44.78;21.00;;;;;;;;;;6123753;23;19998;-70
2020/12/11 15:03:00;;;;;;;48.20;21.35;;;;;;;;;;6123814;23;20217;-71
2020/12/11 15:05:26;;;;;;;43.90;22.95;;;;;;;;;;6098979;23;20010;-70
2020/12/11 15:07:53;;;;;;;45.90;23.80;;;;;;;;;;6125501;23;19998;-70
2020/12/11 15:10:20;;;;;;;50.40;25.85;;;;;;;;;;6123879;23;19998;-70
2020/12/11 15:12:45;;;;;;;52.80;26.80;;;;;;;;;;6123182;23;20002;-71
2020/12/11 15:15:11;;;;;;;52.08;24.33;;;;;;;;;;6125158;23;19994;-71
2020/12/11 15:17:37;;;;;;;50.35;25.90;;;;;;;;;;6125315;23;20009;-70
2020/12/11 15:20:03;;;;;;;59.53;26.13;;;;;;;;;;6125058;23;19994;-72
2020/12/11 15:22:29;;;;;;;48.35;24.08;;;;;;;;;;6123271;23;20057;-70
2020/12/11 15:24:55;;;;;;;50.92;26.20;;;;;;;;;;6124823;23;20025;-70
2020/12/11 15:27:20;;;;;;;57.05;25.73;;;;;;;;;;6124932;23;20002;-69
2020/12/11 15:29:46;;;;;;;53.92;28.33;;;;;;;;;;6123744;23;20009;-72
2020/12/11 15:32:11;;;;;;;45.28;21.85;;;;;;;;;;6124414;23;20324;-70
2020/12/11 15:34:37;;;;;;;40.45;21.50;;;;;;;;;;6123126;23;20002;-72
2020/12/11 15:37:05;;;;;;;44.00;20.67;;;;;;;;;;6123003;23;20002;-71
2020/12/11 15:39:31;;;;;;;35.38;19.15;;;;;;;;;;6125072;23;20006;-71
2020/12/11 15:41:57;;;;;;;63.15;26.90;;;;;;;;;;6125148;23;20061;-71
2020/12/11 15:44:23;;;;;;;57.92;26.67;;;;;;;;;;6125062;23;20076;-69
2020/12/11 15:46:48;;;;;;;51.80;23.73;;;;;;;;;;6122814;23;20270;-65
2020/12/11 15:49:15;;;;;;;40.10;13.57;;;;;;;;;;6122790;23;20089;-65
2020/12/11 15:51:40;;;;;;;53.40;27.75;;;;;;;;;;6122316;23;19998;-68
2020/12/11 15:54:07;;;;;;;47.83;23.98;;;;;;;;;;6123572;23;20497;-68
2020/12/11 15:56:33;;;;;;;44.67;23.60;;;;;;;;;;6123710;23;20363;-69
